Weather at Sandpoint Airport

Public forecast

Using degrees Fahrenheit for public forecast. Weather courtesy of forecast.io.

Current aviation weather report (METAR) for Sandpoint Airport

2024/07/13 15:15 (retrieved 17 minutes ago)

KSZT 131515Z AUTO 02003KT 10SM CLR 21/10 A3004 RMK AO2

Closest aviation forecast (TAF) to Sandpoint Airport

Closest forecast is Coeur D'Alene Airport - Pappy Boyington Field, 33.2 nm (61.5 km) SSW.

2024/07/13 12:22 (retrieved 3 hours ago)

TAF KCOE 131120Z 1312/1412 08004KT P6SM SKC FM131900 24007KT P6SM SKC FM140300 14004KT P6SM SKC